createdAt,value
2019-04-22T00:01:45.572Z,4.60
2019-04-22T00:04:17.756Z,5.13
2019-04-22T00:07:07.024Z,5.63
2019-04-22T00:09:40.461Z,4.57
2019-04-22T00:12:06.396Z,4.77
2019-04-22T00:14:28.338Z,5.20
2019-04-22T00:17:08.617Z,5.10
2019-04-22T00:19:45.649Z,4.80
2019-04-22T00:22:07.785Z,5.23
2019-04-22T00:24:30.496Z,5.23
2019-04-22T00:27:05.218Z,4.90
2019-04-22T00:29:50.097Z,5.30
2019-04-22T00:35:07.134Z,5.50
2019-04-22T00:37:43.487Z,4.90
2019-04-22T00:40:06.940Z,4.70
2019-04-22T00:45:26.754Z,4.37
2019-04-22T00:47:50.660Z,4.50
2019-04-22T00:50:26.801Z,4.27
2019-04-22T00:52:57.975Z,4.67
2019-04-22T00:57:51.982Z,4.20
2019-04-22T01:00:19.909Z,4.57
2019-04-22T01:02:59.310Z,4.23
2019-04-22T01:05:21.397Z,3.90
2019-04-22T01:07:49.907Z,4.30
2019-04-22T01:10:18.766Z,4.43
2019-04-22T01:12:48.112Z,4.33
2019-04-22T01:15:16.647Z,4.73
2019-04-22T01:17:46.684Z,4.00
2019-04-22T01:20:29.406Z,4.10
2019-04-22T01:22:39.387Z,4.20
2019-04-22T01:25:11.375Z,4.73
2019-04-22T01:27:34.550Z,4.60
2019-04-22T01:30:03.644Z,4.37
2019-04-22T01:32:27.308Z,3.87
2019-04-22T01:35:03.512Z,4.73
2019-04-22T01:37:38.737Z,4.60
2019-04-22T01:40:21.464Z,4.47
2019-04-22T01:42:48.519Z,4.50
2019-04-22T01:45:13.756Z,4.57
2019-04-22T01:47:43.947Z,4.03
2019-04-22T01:50:11.893Z,3.90
2019-04-22T01:52:38.503Z,3.63
2019-04-22T01:55:17.696Z,4.20
2019-04-22T01:57:39.913Z,4.27
2019-04-22T02:00:00.993Z,4.43
2019-04-22T02:02:42.347Z,3.93
2019-04-22T02:07:37.082Z,3.83
2019-04-22T02:10:02.380Z,4.20
2019-04-22T02:12:36.846Z,4.63
2019-04-22T02:15:09.172Z,3.70
2019-04-22T02:17:37.134Z,4.87
2019-04-22T02:20:09.291Z,4.17
2019-04-22T02:22:51.090Z,4.17
2019-04-22T02:24:58.904Z,3.70
2019-04-22T02:27:41.259Z,4.27
2019-04-22T02:30:01.060Z,3.93
2019-04-22T02:33:07.399Z,3.63
2019-04-22T02:35:18.234Z,4.10
2019-04-22T02:37:30.132Z,3.47
2019-04-22T02:40:03.492Z,3.73
2019-04-22T02:42:24.641Z,3.90
2019-04-22T02:47:42.358Z,3.43
2019-04-22T02:50:02.045Z,4.37
2019-04-22T02:52:31.034Z,4.23
2019-04-22T02:55:03.043Z,3.47
2019-04-22T02:57:45.077Z,3.53
2019-04-22T03:02:41.387Z,3.33
2019-04-22T03:07:29.336Z,3.33
2019-04-22T03:09:59.482Z,4.20
2019-04-22T03:12:37.022Z,3.60
2019-04-22T03:17:38.923Z,4.43
2019-04-22T03:19:58.746Z,4.87
2019-04-22T03:22:21.037Z,5.13
2019-04-22T03:27:25.476Z,5.07
2019-04-22T03:33:09.480Z,4.90
2019-04-22T03:35:31.897Z,4.87
2019-04-22T03:37:45.612Z,4.47
2019-04-22T03:42:51.978Z,4.20
2019-04-22T03:45:10.282Z,3.90
2019-04-22T03:47:38.251Z,3.70
2019-04-22T03:52:31.057Z,4.50
2019-04-22T03:55:16.150Z,4.13
2019-04-22T03:57:46.039Z,4.50
2019-04-22T04:00:08.328Z,3.90
2019-04-22T04:02:40.991Z,4.40
2019-04-22T04:07:40.571Z,4.43
2019-04-22T04:10:10.444Z,3.90
2019-04-22T04:12:37.802Z,3.90
2019-04-22T04:30:31.241Z,3.37
2019-04-22T04:32:57.030Z,4.03
2019-04-22T04:37:52.487Z,4.27
2019-04-22T04:43:00.965Z,4.00
2019-04-22T04:45:31.985Z,3.70
2019-04-22T04:50:47.333Z,3.90
2019-04-22T04:56:34.399Z,4.00
2019-04-22T04:57:54.439Z,3.63
2019-04-22T05:00:39.456Z,3.90
2019-04-22T05:03:08.151Z,3.87
2019-04-22T05:12:52.283Z,4.07
2019-04-22T05:17:47.304Z,4.10
2019-04-22T05:20:26.602Z,4.67
2019-04-22T05:22:39.726Z,4.57
2019-04-22T05:32:41.200Z,5.03
2019-04-22T05:37:35.463Z,4.93
2019-04-22T05:40:08.776Z,5.17
2019-04-22T05:42:26.386Z,4.53
2019-04-22T05:45:03.296Z,5.00
2019-04-22T05:47:29.922Z,4.80
2019-04-22T05:49:54.906Z,5.27
2019-04-22T05:52:29.283Z,4.53
2019-04-22T05:55:00.881Z,4.87
2019-04-22T05:57:26.099Z,4.17
2019-04-22T05:59:59.507Z,4.77
2019-04-22T06:02:39.764Z,5.53
2019-04-22T06:04:58.350Z,5.00
2019-04-22T06:07:29.384Z,4.40
2019-04-22T06:10:02.356Z,4.53
2019-04-22T06:12:23.446Z,4.70
2019-04-22T06:14:58.477Z,4.60
2019-04-22T06:17:31.734Z,4.20
2019-04-22T06:19:58.924Z,4.73
2019-04-22T06:22:41.705Z,4.93
2019-04-22T06:24:55.486Z,5.20
2019-04-22T06:27:41.326Z,4.40
2019-04-22T06:29:53.700Z,4.93
2019-04-22T06:34:58.097Z,5.37
2019-04-22T06:37:32.254Z,4.70
2019-04-22T06:39:50.974Z,5.17
2019-04-22T06:42:26.629Z,4.57
2019-04-22T06:44:54.895Z,4.47
2019-04-22T06:47:26.961Z,5.30
2019-04-22T06:49:52.679Z,5.20
2019-04-22T06:52:18.337Z,5.40
2019-04-22T06:54:49.048Z,4.47
2019-04-22T06:57:19.433Z,4.20
2019-04-22T06:59:56.738Z,4.70
2019-04-22T07:02:24.046Z,4.63
2019-04-22T07:04:52.000Z,4.77
2019-04-22T07:09:48.674Z,4.23
2019-04-22T07:12:20.700Z,4.57
2019-04-22T07:14:44.843Z,4.20
2019-04-22T07:17:15.399Z,4.83
2019-04-22T07:19:43.753Z,4.57
2019-04-22T07:22:16.302Z,4.80
2019-04-22T07:24:46.988Z,4.67
2019-04-22T07:27:20.710Z,4.73
2019-04-22T07:29:58.203Z,3.83
2019-04-22T07:32:25.358Z,5.03
2019-04-22T07:34:52.466Z,4.27
2019-04-22T07:37:28.379Z,4.20
2019-04-22T07:39:45.395Z,4.20
2019-04-22T07:42:27.868Z,4.80
2019-04-22T07:44:51.049Z,4.67
2019-04-22T07:50:31.228Z,4.13
2019-04-22T07:52:47.010Z,4.70
2019-04-22T07:55:09.773Z,4.10
2019-04-22T07:57:44.346Z,4.50
2019-04-22T08:00:16.197Z,4.37
2019-04-22T08:02:44.197Z,4.07
2019-04-22T08:05:16.420Z,4.40
2019-04-22T08:10:45.122Z,4.13
2019-04-22T08:19:00.736Z,3.93
2019-04-22T08:21:20.015Z,4.67
2019-04-22T08:23:51.021Z,4.10
2019-04-22T08:26:19.402Z,4.50
2019-04-22T08:28:51.775Z,4.03
2019-04-22T08:31:20.344Z,4.13
2019-04-22T08:33:46.647Z,4.43
2019-04-22T08:36:18.353Z,3.97
2019-04-22T08:38:52.852Z,4.00
2019-04-22T08:49:10.488Z,3.90
2019-04-22T08:51:42.629Z,3.73
2019-04-22T08:54:24.491Z,3.80
2019-04-22T08:56:50.968Z,4.23
2019-04-22T08:59:44.375Z,3.90
2019-04-22T09:04:47.982Z,4.27
2019-04-22T09:07:34.555Z,3.63
2019-04-22T09:10:02.000Z,4.00
2019-04-22T09:15:20.683Z,4.20
2019-04-22T09:20:20.647Z,4.10
2019-04-22T09:22:47.159Z,4.20
2019-04-22T09:25:22.180Z,3.97
2019-04-22T09:27:49.761Z,4.10
2019-04-22T09:30:25.987Z,4.00
2019-04-22T09:32:48.299Z,4.50
2019-04-22T09:35:10.154Z,3.67
2019-04-22T09:37:50.300Z,4.30
2019-04-22T09:42:48.023Z,3.70
2019-04-22T09:45:13.794Z,3.47
2019-04-22T09:50:47.692Z,4.17
2019-04-22T09:53:29.638Z,4.30
2019-04-22T09:56:03.980Z,3.73
2019-04-22T09:58:33.564Z,3.97
2019-04-22T10:01:12.877Z,4.00
2019-04-22T10:03:40.516Z,4.30
2019-04-22T10:06:19.374Z,3.93
2019-04-22T10:08:40.990Z,3.80
2019-04-22T10:11:04.708Z,4.03
2019-04-22T10:16:08.066Z,4.10
2019-04-22T10:18:33.792Z,3.90
2019-04-22T10:21:07.401Z,3.97
2019-04-22T10:23:35.458Z,3.33
2019-04-22T10:26:08.962Z,3.60
2019-04-22T10:28:40.035Z,3.40
2019-04-22T10:31:21.628Z,3.63
2019-04-22T10:33:25.531Z,3.13
2019-04-22T10:35:34.517Z,3.50
2019-04-22T10:38:02.086Z,4.17
2019-04-22T10:40:36.625Z,3.47
2019-04-22T10:43:05.457Z,3.80
2019-04-22T10:45:34.385Z,3.60
2019-04-22T10:48:01.917Z,3.67
2019-04-22T10:50:46.596Z,3.90
2019-04-22T10:53:15.586Z,3.37
2019-04-22T10:55:45.212Z,3.37
2019-04-22T10:58:13.071Z,3.80
2019-04-22T11:00:42.368Z,3.50
2019-04-22T11:03:10.240Z,3.57
2019-04-22T11:05:39.927Z,3.13
2019-04-22T11:08:33.926Z,3.60
2019-04-22T11:11:10.651Z,3.40
2019-04-22T11:13:28.263Z,3.37
2019-04-22T11:15:56.040Z,3.10
2019-04-22T11:18:23.409Z,4.03
2019-04-22T11:20:51.777Z,3.33
2019-04-22T11:23:20.617Z,3.23
2019-04-22T11:25:48.073Z,3.40
2019-04-22T11:28:15.980Z,3.47
2019-04-22T11:30:44.706Z,3.30
2019-04-22T11:33:12.210Z,3.87
2019-04-22T11:35:39.802Z,3.63
2019-04-22T11:38:07.018Z,3.30
2019-04-22T11:40:39.886Z,3.00
2019-04-22T11:43:04.379Z,3.37
2019-04-22T11:45:33.152Z,3.10
2019-04-22T11:48:01.523Z,3.30
2019-04-22T11:50:30.202Z,3.20
2019-04-22T11:52:58.592Z,3.97
2019-04-22T11:55:26.862Z,3.30
2019-04-22T11:57:54.396Z,3.23
2019-04-22T12:00:34.778Z,3.67
2019-04-22T12:03:03.206Z,3.40
2019-04-22T12:05:32.143Z,3.40
2019-04-22T12:07:59.681Z,3.50
2019-04-22T12:10:36.694Z,3.33
2019-04-22T12:12:59.736Z,3.30
2019-04-22T12:15:28.816Z,3.70
2019-04-22T12:17:57.341Z,3.37
2019-04-22T12:20:25.503Z,3.33
2019-04-22T12:22:53.363Z,3.60
2019-04-22T12:25:32.295Z,3.43
2019-04-22T12:27:51.063Z,3.10
2019-04-22T12:30:19.603Z,3.37
2019-04-22T12:32:50.513Z,3.30
2019-04-22T12:35:19.655Z,3.30
2019-04-22T12:37:53.408Z,3.37
2019-04-22T12:40:31.449Z,3.17
2019-04-22T12:42:47.216Z,3.70
2019-04-22T12:45:16.239Z,3.30
2019-04-22T12:47:44.174Z,3.00
2019-04-22T12:50:20.488Z,3.37
2019-04-22T12:52:50.942Z,3.10
2019-04-22T12:55:12.001Z,3.20
2019-04-22T12:57:40.742Z,3.00
2019-04-22T13:00:11.512Z,3.97
2019-04-22T13:02:38.999Z,3.10
2019-04-22T13:05:09.986Z,3.40
2019-04-22T13:07:38.003Z,3.30
2019-04-22T13:10:08.012Z,3.40
2019-04-22T13:12:35.303Z,2.77
2019-04-22T13:15:06.022Z,3.53
2019-04-22T13:18:04.570Z,3.07
2019-04-22T13:20:22.111Z,2.90
2019-04-22T13:22:50.587Z,3.00
2019-04-22T13:25:20.716Z,2.90
2019-04-22T13:27:49.011Z,3.20
2019-04-22T13:30:20.810Z,3.33
2019-04-22T13:32:49.115Z,3.73
2019-04-22T13:35:19.558Z,3.73
2019-04-22T13:37:46.760Z,3.10
2019-04-22T13:40:15.069Z,3.30
2019-04-22T13:42:42.812Z,2.93
2019-04-22T13:45:13.408Z,3.33
2019-04-22T13:48:01.556Z,3.10
2019-04-22T13:50:54.500Z,3.83
2019-04-22T13:53:23.867Z,3.67
2019-04-22T13:55:41.878Z,3.50
2019-04-22T13:57:57.230Z,3.20
2019-04-22T14:00:12.228Z,3.30
2019-04-22T14:03:02.576Z,3.23
2019-04-22T14:05:31.000Z,3.27
2019-04-22T14:08:00.837Z,3.10
2019-04-22T14:10:27.589Z,3.30
2019-04-22T14:12:55.115Z,3.77
2019-04-22T14:15:22.485Z,3.10
2019-04-22T14:17:49.866Z,3.17
2019-04-22T14:20:18.746Z,3.37
2019-04-22T14:22:46.379Z,3.37
2019-04-22T14:25:14.592Z,2.90
2019-04-22T14:27:51.141Z,3.50
2019-04-22T14:30:12.848Z,3.40
2019-04-22T14:32:42.023Z,3.50
2019-04-22T14:35:11.101Z,3.20
2019-04-22T14:37:38.625Z,3.50
2019-04-22T14:40:09.232Z,3.20
2019-04-22T14:42:58.930Z,2.80
2019-04-22T14:45:30.447Z,3.37
2019-04-22T14:48:02.731Z,3.67
2019-04-22T14:50:22.056Z,3.03
2019-04-22T14:52:58.233Z,3.03
2019-04-22T14:55:10.152Z,3.20
2019-04-22T14:57:33.743Z,3.43
2019-04-22T15:00:02.306Z,3.67
2019-04-22T15:02:29.854Z,3.43
2019-04-22T15:04:58.435Z,3.17
2019-04-22T15:07:25.763Z,3.27
2019-04-22T15:09:52.950Z,3.40
2019-04-22T15:12:29.987Z,3.07
2019-04-22T15:14:49.288Z,3.03
2019-04-22T15:17:38.845Z,3.67
2019-04-22T15:20:23.676Z,3.60
2019-04-22T15:22:52.684Z,3.00
2019-04-22T15:25:20.822Z,3.37
2019-04-22T15:27:48.044Z,3.40
2019-04-22T15:30:15.383Z,3.43
2019-04-22T15:32:43.186Z,3.47
2019-04-22T15:35:11.430Z,3.57
2019-04-22T15:37:39.376Z,3.00
2019-04-22T15:40:07.023Z,2.87
2019-04-22T15:42:39.633Z,2.87
2019-04-22T15:45:14.079Z,3.10
2019-04-22T15:47:39.919Z,3.10
2019-04-22T15:50:08.032Z,3.43
2019-04-22T15:52:40.715Z,3.00
2019-04-22T15:55:06.654Z,3.30
2019-04-22T15:57:36.414Z,2.97
2019-04-22T16:00:18.139Z,2.63
2019-04-22T16:02:34.008Z,2.40
2019-04-22T16:05:02.504Z,2.87
2019-04-22T16:07:31.916Z,2.70
2019-04-22T16:09:59.667Z,2.50
2019-04-22T16:12:38.880Z,2.60
2019-04-22T16:14:59.715Z,2.87
2019-04-22T16:17:28.762Z,3.10
2019-04-22T16:19:57.167Z,3.00
2019-04-22T16:22:26.963Z,2.60
2019-04-22T16:25:17.537Z,3.10
2019-04-22T16:27:44.961Z,3.03
2019-04-22T16:30:13.212Z,3.23
2019-04-22T16:32:41.495Z,3.23
2019-04-22T16:35:10.447Z,3.57
2019-04-22T16:37:38.927Z,3.13
2019-04-22T16:40:07.243Z,3.03
2019-04-22T16:42:43.312Z,2.97
2019-04-22T16:45:04.521Z,2.80
2019-04-22T16:47:31.758Z,2.60
2019-04-22T16:49:59.619Z,3.00
2019-04-22T16:52:28.055Z,3.10
2019-04-22T16:54:56.553Z,3.00
2019-04-22T16:57:24.172Z,2.50
2019-04-22T16:59:52.915Z,3.90
2019-04-22T17:02:34.932Z,2.50
2019-04-22T17:05:13.838Z,2.40
2019-04-22T17:07:42.336Z,3.40
2019-04-22T17:10:10.160Z,3.00
2019-04-22T17:12:47.889Z,3.20
2019-04-22T17:15:12.202Z,2.60
2019-04-22T17:17:39.180Z,2.90
2019-04-22T17:20:07.212Z,2.80
2019-04-22T17:22:35.529Z,3.73
2019-04-22T17:25:04.452Z,2.90
2019-04-22T17:27:34.429Z,2.90
2019-04-22T17:30:02.284Z,2.40
2019-04-22T17:32:31.612Z,3.17
2019-04-22T17:34:59.353Z,2.73
2019-04-22T17:37:31.669Z,2.93
2019-04-22T17:40:13.370Z,3.20
2019-04-22T17:42:47.579Z,3.17
2019-04-22T17:45:26.678Z,2.73
2019-04-22T17:48:16.910Z,3.17
2019-04-22T17:50:46.779Z,3.33
2019-04-22T17:53:21.229Z,2.97
2019-04-22T17:55:53.187Z,2.93
2019-04-22T17:58:14.659Z,2.70
2019-04-22T18:00:42.914Z,2.90
2019-04-22T18:03:03.085Z,3.23
2019-04-22T18:05:32.043Z,3.27
2019-04-22T18:08:09.657Z,2.90
2019-04-22T18:10:39.274Z,2.60
2019-04-22T18:13:14.347Z,2.87
2019-04-22T18:15:37.763Z,3.10
2019-04-22T18:18:12.789Z,2.80
2019-04-22T18:20:29.302Z,2.40
2019-04-22T18:22:54.681Z,2.80
2019-04-22T18:25:29.062Z,2.67
2019-04-22T18:28:13.490Z,2.87
2019-04-22T18:30:27.458Z,2.60
2019-04-22T18:33:02.879Z,3.90
2019-04-22T18:35:31.204Z,2.90
2019-04-22T18:38:05.098Z,3.20
2019-04-22T18:40:30.963Z,3.17
2019-04-22T18:43:03.689Z,2.97
2019-04-22T18:47:55.031Z,3.00
2019-04-22T18:50:45.392Z,2.90
2019-04-22T18:53:35.497Z,3.47
2019-04-22T18:56:06.926Z,3.10
2019-04-22T18:58:24.691Z,2.90
2019-04-22T19:00:43.961Z,2.67
2019-04-22T19:03:16.528Z,3.10
2019-04-22T19:06:09.540Z,3.00
2019-04-22T19:08:31.563Z,2.90
2019-04-22T19:16:17.518Z,2.67
2019-04-22T19:21:03.025Z,2.80
2019-04-22T19:23:28.450Z,2.53
2019-04-22T19:25:52.290Z,2.80
2019-04-22T19:31:02.738Z,2.60
2019-04-22T19:33:29.045Z,2.30
2019-04-22T19:35:49.148Z,2.27
2019-04-22T19:38:14.283Z,1.90
2019-04-22T19:41:02.476Z,2.30
2019-04-22T19:43:27.456Z,2.40
2019-04-22T19:45:45.924Z,2.27
2019-04-22T19:48:27.172Z,2.97
2019-04-22T19:50:59.040Z,2.30
2019-04-22T19:53:23.415Z,2.80
2019-04-22T19:55:46.868Z,2.70
2019-04-22T19:58:15.080Z,2.73
2019-04-22T20:00:54.560Z,2.83
2019-04-22T20:03:54.493Z,2.73
2019-04-22T20:06:33.556Z,3.03
2019-04-22T20:09:05.820Z,2.90
2019-04-22T20:11:34.192Z,3.37
2019-04-22T20:14:04.182Z,2.80
2019-04-22T20:16:27.352Z,2.73
2019-04-22T20:19:04.764Z,2.80
2019-04-22T20:21:31.733Z,2.20
2019-04-22T20:23:49.433Z,2.20
2019-04-22T20:26:24.803Z,2.60
2019-04-22T20:28:57.617Z,2.17
2019-04-22T20:31:24.818Z,2.33
2019-04-22T20:34:05.018Z,2.50
2019-04-22T20:36:44.980Z,2.43
2019-04-22T20:38:49.459Z,2.57
2019-04-22T20:41:18.982Z,2.30
2019-04-22T20:43:58.055Z,2.60
2019-04-22T20:46:22.345Z,2.83
2019-04-22T20:48:55.404Z,2.80
2019-04-22T20:51:29.101Z,2.53
2019-04-22T20:53:52.826Z,2.80
2019-04-22T20:56:18.803Z,2.50
2019-04-22T20:58:45.281Z,2.93
2019-04-22T21:01:10.452Z,2.73
2019-04-22T21:03:36.964Z,2.90
2019-04-22T21:06:16.110Z,2.63
2019-04-22T21:08:48.709Z,3.00
2019-04-22T21:11:12.718Z,2.40
2019-04-22T21:13:45.523Z,2.50
2019-04-22T21:16:18.390Z,2.47
2019-04-22T21:18:39.046Z,2.43
2019-04-22T21:21:16.965Z,2.53
2019-04-22T21:23:34.968Z,2.47
2019-04-22T21:26:11.570Z,2.40
2019-04-22T21:28:41.506Z,2.60
2019-04-22T21:31:17.187Z,2.63
2019-04-22T21:33:40.880Z,2.73
2019-04-22T21:36:14.239Z,2.57
2019-04-22T21:38:37.500Z,2.50
2019-04-22T21:41:04.967Z,2.50
2019-04-22T21:43:39.803Z,2.27
2019-04-22T21:46:09.133Z,2.57
2019-04-22T21:51:08.613Z,2.60
2019-04-22T21:53:48.827Z,2.70
2019-04-22T21:56:23.886Z,3.00
2019-04-22T21:58:39.291Z,2.80
2019-04-22T22:01:21.895Z,2.53
2019-04-22T22:03:48.030Z,2.53
2019-04-22T22:06:05.905Z,2.70
2019-04-22T22:08:46.061Z,2.80
2019-04-22T22:11:13.615Z,2.60
2019-04-22T22:13:48.709Z,2.80
2019-04-22T22:16:13.119Z,2.60
2019-04-22T22:18:34.956Z,2.90
2019-04-22T22:21:36.309Z,2.87
2019-04-22T22:23:42.503Z,2.67
2019-04-22T22:26:06.807Z,3.00
2019-04-22T22:28:52.185Z,2.53
2019-04-22T22:31:15.473Z,3.47
2019-04-22T22:33:46.248Z,2.73
2019-04-22T22:36:05.068Z,3.50
2019-04-22T22:38:29.777Z,2.73
2019-04-22T22:40:45.853Z,2.83
2019-04-22T22:43:24.345Z,2.90
2019-04-22T22:45:54.489Z,2.90
2019-04-22T22:48:36.469Z,2.63
2019-04-22T22:50:58.963Z,2.50
2019-04-22T22:56:00.459Z,2.67
2019-04-22T22:58:37.090Z,2.80
2019-04-22T23:00:56.047Z,2.53
2019-04-22T23:06:03.610Z,3.27
2019-04-22T23:08:44.743Z,2.70
2019-04-22T23:11:03.509Z,2.60
2019-04-22T23:15:46.673Z,3.00
2019-04-22T23:18:03.834Z,2.70
2019-04-22T23:20:37.551Z,2.90
2019-04-22T23:23:23.531Z,2.77
2019-04-22T23:25:54.714Z,2.90
2019-04-22T23:28:29.838Z,2.93
2019-04-22T23:31:14.009Z,3.33
2019-04-22T23:33:56.049Z,3.00
2019-04-22T23:36:57.558Z,3.17
2019-04-22T23:39:40.307Z,3.43
2019-04-22T23:42:07.816Z,3.20
2019-04-22T23:44:31.814Z,2.90
2019-04-22T23:47:16.060Z,3.70
2019-04-22T23:49:53.338Z,3.20
2019-04-22T23:52:23.823Z,3.53
2019-04-22T23:54:58.911Z,3.30
2019-04-22T23:57:31.264Z,3.10
